createdAt,value
2018-05-19T00:00:03.231Z,1021.51
2018-05-19T00:05:03.322Z,1021.53
2018-05-19T00:10:02.935Z,1021.52
2018-05-19T00:15:03.524Z,1021.52
2018-05-19T00:20:03.132Z,1021.5
2018-05-19T00:25:02.889Z,1021.55
2018-05-19T00:30:03.442Z,1021.54
2018-05-19T00:35:03.197Z,1021.54
2018-05-19T00:40:02.909Z,1021.57
2018-05-19T00:45:03.504Z,1021.6
2018-05-19T00:50:03.115Z,1021.54
2018-05-19T00:55:03.671Z,1021.56
2018-05-19T01:00:03.283Z,1021.57
2018-05-19T01:05:02.887Z,1021.59
2018-05-19T01:10:03.672Z,1021.55
2018-05-19T01:15:03.224Z,1021.58
2018-05-19T01:20:02.829Z,1021.5
2018-05-19T01:25:03.493Z,1021.55
2018-05-19T01:30:03.015Z,1021.47
2018-05-19T01:35:03.528Z,1021.43
2018-05-19T01:40:03.554Z,1021.37
2018-05-19T01:45:03.167Z,1021.48
2018-05-19T01:50:02.736Z,1021.4
2018-05-19T01:55:03.424Z,1021.41
2018-05-19T02:00:03.005Z,1021.44
2018-05-19T02:05:03.546Z,1021.5
2018-05-19T02:10:03.114Z,1021.49
2018-05-19T02:15:03.666Z,1021.48
2018-05-19T02:20:03.294Z,1021.53
2018-05-19T02:25:02.854Z,1021.44
2018-05-19T02:30:03.441Z,1021.44
2018-05-19T02:35:03.048Z,1021.41
2018-05-19T02:40:02.719Z,1021.38
2018-05-19T02:45:03.308Z,1021.36
2018-05-19T02:50:02.850Z,1021.35
2018-05-19T02:55:03.462Z,1021.34
2018-05-19T03:00:03.429Z,1021.34
2018-05-19T03:05:02.940Z,1021.36
2018-05-19T03:10:03.563Z,1021.38
2018-05-19T03:15:03.160Z,1021.34
2018-05-19T03:20:03.657Z,1021.35
2018-05-19T03:25:03.195Z,1021.39
2018-05-19T03:30:02.725Z,1021.33
2018-05-19T03:35:03.281Z,1021.35
2018-05-19T03:40:02.876Z,1021.29
2018-05-19T03:45:03.853Z,1021.34
2018-05-19T03:50:03.473Z,1021.31
2018-05-19T03:55:02.997Z,1021.32
2018-05-19T04:00:03.595Z,1021.33
2018-05-19T04:05:03.270Z,1021.39
2018-05-19T04:10:02.959Z,1021.45
2018-05-19T04:15:03.571Z,1021.38
2018-05-19T04:20:03.135Z,1021.51
2018-05-19T04:25:03.706Z,1021.54
2018-05-19T04:30:03.024Z,1021.53
2018-05-19T04:35:03.633Z,1021.54
2018-05-19T04:40:03.184Z,1021.66
2018-05-19T04:45:02.717Z,1021.67
2018-05-19T04:50:03.242Z,1021.67
2018-05-19T04:55:02.752Z,1021.57
2018-05-19T05:00:03.301Z,1021.56
2018-05-19T05:05:02.913Z,1021.59
2018-05-19T05:10:03.550Z,1021.56
2018-05-19T05:15:03.120Z,1021.59
2018-05-19T05:20:02.710Z,1021.6
2018-05-19T05:25:03.288Z,1021.65
2018-05-19T05:30:03.044Z,1021.68
2018-05-19T05:35:02.715Z,1021.8
2018-05-19T05:40:03.535Z,1021.74
2018-05-19T05:45:03.123Z,1021.79
2018-05-19T05:50:03.126Z,1021.85
2018-05-19T05:55:02.708Z,1021.9
2018-05-19T06:00:03.269Z,1021.92
2018-05-19T06:05:02.845Z,1021.93
2018-05-19T06:10:03.459Z,1021.97
2018-05-19T06:15:03.037Z,1021.99
2018-05-19T06:20:03.638Z,1022.03
2018-05-19T06:25:03.735Z,1022.05
2018-05-19T06:30:03.588Z,1022.08
2018-05-19T06:35:03.131Z,1022.14
2018-05-19T06:40:02.705Z,1022.14
2018-05-19T06:45:03.263Z,1022.13
2018-05-19T06:50:02.772Z,1022.22
2018-05-19T06:55:03.385Z,1022.16
2018-05-19T07:00:02.965Z,1022.13
2018-05-19T07:05:03.618Z,1022.17
2018-05-19T07:10:03.201Z,1022.17
2018-05-19T07:15:03.120Z,1022.15
2018-05-19T07:20:02.769Z,1022.31
2018-05-19T07:25:03.312Z,1022.28
2018-05-19T07:30:02.881Z,1022.32
2018-05-19T07:35:03.437Z,1022.27
2018-05-19T07:40:03.077Z,1022.22
2018-05-19T07:45:03.692Z,1022.25
2018-05-19T07:50:03.326Z,1022.28
2018-05-19T07:55:03.201Z,1022.27
2018-05-19T08:00:02.761Z,1022.31
2018-05-19T08:05:03.302Z,1022.34
2018-05-19T08:10:03.018Z,1022.33
2018-05-19T08:15:03.563Z,1022.39
2018-05-19T08:20:03.089Z,1022.37
2018-05-19T08:25:03.666Z,1022.3
2018-05-19T08:30:03.225Z,1022.17
2018-05-19T08:35:03.050Z,1022.25
2018-05-19T08:40:02.806Z,1022.3
2018-05-19T08:45:03.396Z,1022.26
2018-05-19T08:50:02.928Z,1022.37
2018-05-19T08:55:03.458Z,1022.33
2018-05-19T09:00:03.101Z,1022.36
2018-05-19T09:05:03.668Z,1022.41
2018-05-19T09:10:03.289Z,1022.39
2018-05-19T09:15:02.834Z,1022.42
2018-05-19T09:20:03.541Z,1022.33
2018-05-19T09:25:03.078Z,1022.35
2018-05-19T09:30:03.654Z,1022.29
2018-05-19T09:35:03.206Z,1022.34
2018-05-19T09:40:02.822Z,1022.36
2018-05-19T09:45:03.424Z,1022.4
2018-05-19T09:50:02.970Z,1022.44
2018-05-19T09:55:03.552Z,1022.39
2018-05-19T10:00:03.179Z,1022.41
2018-05-19T10:05:02.957Z,1022.49
2018-05-19T10:10:03.707Z,1022.44
2018-05-19T10:15:03.289Z,1022.42
2018-05-19T10:20:02.857Z,1022.46
2018-05-19T10:25:03.392Z,1022.43
2018-05-19T10:30:02.975Z,1022.44
2018-05-19T10:35:03.585Z,1022.46
2018-05-19T10:40:03.128Z,1022.45
2018-05-19T10:45:03.614Z,1022.39
2018-05-19T10:50:03.210Z,1022.36
2018-05-19T10:55:02.741Z,1022.33
2018-05-19T11:00:03.493Z,1022.5
2018-05-19T11:05:03.063Z,1022.51
2018-05-19T11:10:03.177Z,1022.51
2018-05-19T11:15:02.816Z,1022.48
2018-05-19T11:20:03.391Z,1022.53
2018-05-19T11:25:02.962Z,1022.48
2018-05-19T11:30:03.519Z,1022.48
2018-05-19T11:35:03.097Z,1022.45
2018-05-19T11:40:03.730Z,1022.41
2018-05-19T11:45:03.300Z,1022.39
2018-05-19T11:50:02.924Z,1022.28
2018-05-19T11:55:03.435Z,1022.29
2018-05-19T12:00:03.017Z,1022.17
2018-05-19T12:05:03.617Z,1022.17
2018-05-19T12:10:03.319Z,1022.08
2018-05-19T12:15:02.954Z,1022.06
2018-05-19T12:20:03.658Z,1021.99
2018-05-19T12:25:03.199Z,1021.91
2018-05-19T12:30:02.758Z,1021.9
2018-05-19T12:35:03.329Z,1021.9
2018-05-19T12:40:02.910Z,1021.88
2018-05-19T12:45:03.510Z,1021.98
2018-05-19T12:50:03.000Z,1021.95
2018-05-19T12:55:03.673Z,1021.89
2018-05-19T13:00:03.182Z,1021.95
2018-05-19T13:05:02.775Z,1021.89
2018-05-19T13:10:03.421Z,1021.87
2018-05-19T13:15:02.940Z,1021.84
2018-05-19T13:20:02.693Z,1021.85
2018-05-19T13:25:03.228Z,1021.83
2018-05-19T13:30:02.732Z,1021.89
2018-05-19T13:35:03.304Z,1021.8
2018-05-19T13:40:02.982Z,1021.79
2018-05-19T13:45:03.542Z,1021.67
2018-05-19T13:50:03.092Z,1021.68
2018-05-19T13:55:03.708Z,1021.67
2018-05-19T14:00:03.294Z,1021.64
2018-05-19T14:05:02.970Z,1021.67
2018-05-19T14:10:03.770Z,1021.65
2018-05-19T14:15:03.490Z,1021.61
2018-05-19T14:20:03.076Z,1021.65
2018-05-19T14:25:03.649Z,1021.56
2018-05-19T14:30:03.216Z,1021.64
2018-05-19T14:35:02.769Z,1021.6
2018-05-19T14:40:03.380Z,1021.56
2018-05-19T14:45:03.339Z,1021.5
2018-05-19T14:50:02.928Z,1021.56
2018-05-19T14:55:03.541Z,1021.5
2018-05-19T15:00:03.036Z,1021.5
2018-05-19T15:05:03.649Z,1021.45
2018-05-19T15:10:03.318Z,1021.37
2018-05-19T15:15:02.918Z,1021.32
2018-05-19T15:20:03.425Z,1021.32
2018-05-19T15:25:02.960Z,1021.31
2018-05-19T15:30:03.916Z,1021.24
2018-05-19T15:35:03.591Z,1021.23
2018-05-19T15:40:03.173Z,1021.16
2018-05-19T15:45:03.412Z,1021.26
2018-05-19T15:50:02.960Z,1021.25
2018-05-19T15:55:03.497Z,1021.22
2018-05-19T16:00:03.025Z,1021.25
2018-05-19T16:05:03.529Z,1021.22
2018-05-19T16:10:03.122Z,1021.19
2018-05-19T16:15:03.658Z,1021.16
2018-05-19T16:20:03.328Z,1021.19
2018-05-19T16:25:02.994Z,1021.2
2018-05-19T16:30:03.557Z,1021.2
2018-05-19T16:35:03.245Z,1021.09
2018-05-19T16:40:02.857Z,1021.07
2018-05-19T16:45:03.441Z,1021.07
2018-05-19T16:50:02.962Z,1021.04
2018-05-19T16:55:03.541Z,1020.98
2018-05-19T17:00:03.162Z,1020.96
2018-05-19T17:05:02.752Z,1021.05
2018-05-19T17:10:03.426Z,1021.03
2018-05-19T17:15:03.083Z,1021.05
2018-05-19T17:20:02.679Z,1021.1
2018-05-19T17:25:03.184Z,1021.07
2018-05-19T17:30:02.703Z,1021.06
2018-05-19T17:35:03.321Z,1021.05
2018-05-19T17:40:02.933Z,1021.07
2018-05-19T17:45:03.523Z,1021.13
2018-05-19T17:50:03.046Z,1021.12
2018-05-19T17:55:03.584Z,1021.11
2018-05-19T18:00:03.073Z,1021.07
2018-05-19T18:05:03.626Z,1021.19
2018-05-19T18:10:03.209Z,1021.21
2018-05-19T18:15:02.833Z,1021.2
2018-05-19T18:20:03.342Z,1021.25
2018-05-19T18:25:02.940Z,1021.31
2018-05-19T18:30:03.511Z,1021.29
2018-05-19T18:35:03.094Z,1021.3
2018-05-19T18:40:02.747Z,1021.4
2018-05-19T18:45:03.303Z,1021.41
2018-05-19T18:50:02.859Z,1021.4
2018-05-19T18:55:03.744Z,1021.4
2018-05-19T19:00:03.351Z,1021.44
2018-05-19T19:05:02.966Z,1021.47
2018-05-19T19:10:03.642Z,1021.48
2018-05-19T19:15:03.412Z,1021.56
2018-05-19T19:20:03.064Z,1021.57
2018-05-19T19:25:03.667Z,1021.67
2018-05-19T19:30:03.191Z,1021.75
2018-05-19T19:35:02.857Z,1021.87
2018-05-19T19:40:03.531Z,1021.9
2018-05-19T19:45:03.068Z,1021.89
2018-05-19T19:50:04.051Z,1021.93
2018-05-19T19:55:02.790Z,1022.04
2018-05-19T20:00:03.460Z,1022.07
2018-05-19T20:05:03.059Z,1022.09
2018-05-19T20:10:03.685Z,1022.08
2018-05-19T20:15:03.206Z,1022.14
2018-05-19T20:20:02.751Z,1022.25
2018-05-19T20:25:03.366Z,1022.28
2018-05-19T20:30:02.985Z,1022.25
2018-05-19T20:35:03.583Z,1022.19
2018-05-19T20:40:03.344Z,1022.23
2018-05-19T20:45:02.991Z,1022.31
2018-05-19T20:50:03.559Z,1022.28
2018-05-19T20:55:03.087Z,1022.34
2018-05-19T21:00:03.821Z,1022.34
2018-05-19T21:05:03.430Z,1022.35
2018-05-19T21:10:03.060Z,1022.29
2018-05-19T21:15:03.617Z,1022.32
2018-05-19T21:20:03.243Z,1022.36
2018-05-19T21:25:02.798Z,1022.33
2018-05-19T21:30:03.502Z,1022.37
2018-05-19T21:35:03.119Z,1022.32
2018-05-19T21:40:02.780Z,1022.37
2018-05-19T21:45:03.409Z,1022.42
2018-05-19T21:50:03.370Z,1022.39
2018-05-19T21:55:03.100Z,1022.35
2018-05-19T22:00:02.756Z,1022.33
2018-05-19T22:05:03.381Z,1022.39
2018-05-19T22:10:03.009Z,1022.45
2018-05-19T22:15:03.575Z,1022.45
2018-05-19T22:20:03.166Z,1022.46
2018-05-19T22:25:02.754Z,1022.47
2018-05-19T22:30:03.303Z,1022.5
2018-05-19T22:35:02.827Z,1022.56
2018-05-19T22:40:03.668Z,1022.55
2018-05-19T22:45:03.278Z,1022.6
2018-05-19T22:50:02.843Z,1022.58
2018-05-19T22:55:03.416Z,1022.57
2018-05-19T23:00:02.890Z,1022.52
2018-05-19T23:05:03.064Z,1022.49
2018-05-19T23:10:02.722Z,1022.6
2018-05-19T23:15:03.302Z,1022.55
2018-05-19T23:20:02.885Z,1022.58
2018-05-19T23:25:03.663Z,1022.52
2018-05-19T23:30:03.215Z,1022.53
2018-05-19T23:35:02.832Z,1022.56
2018-05-19T23:40:03.412Z,1022.47
2018-05-19T23:45:02.978Z,1022.45
2018-05-19T23:50:03.615Z,1022.53
2018-05-19T23:55:03.319Z,1022.48
